Main page
METAR-TAF:

METAR-TAF

Airports :

Gloucestershire Airport

Gloucester, England

latitude: 51-54N, longitude: 002-10W, elevation: 29 m

Current weather observation

The report was made 45 minutes ago, at 17:50 UTC
Wind 6 kt from the South/Southwest
Temperature 7°C
Humidity 81%
Pressure 1023 hPa
Visibility 10 km or more
Few clouds at a height of 2500 ft

METAR: EGBJ 291750Z 21006KT 9999 FEW025 07/04 Q1023

Time: 18:35 (18:35 UTC)

Forecast

The report was made 4 hours and 31 minutes ago, at 14:04 UTC
Forecast valid from 29 at 15 UTC to 29 at 19 UTC
Wind 8 kt from the West
Visibility 10 km or more
Scattered clouds at a height of 2500 ft

TAF: EGBJ 291404Z 2915/2919 27008KT 9999 SCT025

Weather observations and forecasts of more than 4000 airports (METAR and TAF reports).

The available stations are represented by yellow and red dots on the map.

Hover mouse over dot to see the name of the station.

Then click to see weather observations and forecasts.

To change the map : click on the green buttons with a black cross to zoom in, on the green button with a dash to zoom out, or on the green arrows for adjacent maps.


METAR-TAF: